Time;durP1;ratioP1;P1;durP2;ratioP2;P2;SDS_P1;SDS_P2;PMS_P1;PMS_P2;Temp;Humidity;BMP_temperature;BMP_pressure;BME280_temperature;BME280_humidity;BME280_pressure;Samples;Min_cycle;Max_cycle;Signal;HPM_P1;HPM_P2
2023/10/31 00:01:03;;;;;;;0.70;0.40;;;11.40;99.90;;;;;;5069235;28;20431;-70
2023/10/31 00:03:29;;;;;;;0.70;0.40;;;11.40;99.90;;;;;;5070531;28;20941;-70
2023/10/31 00:05:54;;;;;;;0.80;0.40;;;11.40;99.90;;;;;;5070767;28;20222;-71
2023/10/31 00:08:20;;;;;;;0.80;0.50;;;11.50;99.90;;;;;;5069100;28;20308;-71
2023/10/31 00:10:46;;;;;;;1.30;0.40;;;11.50;99.90;;;;;;5070424;28;20186;-70
2023/10/31 00:13:12;;;;;;;0.70;0.40;;;11.50;99.90;;;;;;5069314;28;20655;-70
2023/10/31 00:15:37;;;;;;;1.20;0.50;;;11.50;99.90;;;;;;5070473;28;20436;-70
2023/10/31 00:18:03;;;;;;;2.70;0.70;;;11.50;99.90;;;;;;5070337;28;20483;-71
2023/10/31 00:20:29;;;;;;;0.90;0.40;;;11.50;99.90;;;;;;5070257;28;20190;-70
2023/10/31 00:22:55;;;;;;;0.80;0.40;;;11.60;99.90;;;;;;5070243;28;20211;-70
2023/10/31 00:25:20;;;;;;;1.00;0.40;;;11.50;99.90;;;;;;5070201;28;20952;-71
2023/10/31 00:27:46;;;;;;;1.10;0.40;;;11.50;99.90;;;;;;5070080;28;20966;-70
2023/10/31 00:30:12;;;;;;;1.10;0.40;;;11.60;99.90;;;;;;5068033;28;20624;-70
2023/10/31 00:32:37;;;;;;;0.70;0.40;;;11.60;99.90;;;;;;5068338;28;20224;-70
2023/10/31 00:35:03;;;;;;;0.90;0.50;;;11.60;99.90;;;;;;5070027;28;21019;-70
2023/10/31 00:37:29;;;;;;;0.90;0.40;;;11.60;99.90;;;;;;5070192;28;20340;-71
2023/10/31 00:39:54;;;;;;;0.70;0.40;;;11.60;99.90;;;;;;5070313;28;20253;-71
2023/10/31 00:42:20;;;;;;;1.87;0.40;;;11.60;99.90;;;;;;5070361;28;20219;-71
2023/10/31 00:44:45;;;;;;;1.23;0.60;;;11.60;99.90;;;;;;5070366;28;20180;-70
2023/10/31 00:47:11;;;;;;;0.70;0.40;;;11.40;99.90;;;;;;5070118;28;20650;-71
2023/10/31 00:49:37;;;;;;;1.10;0.50;;;11.30;99.90;;;;;;5070070;28;20262;-70
2023/10/31 00:52:03;;;;;;;0.70;0.40;;;11.20;99.90;;;;;;5069904;28;20194;-71
2023/10/31 00:54:28;;;;;;;1.27;0.40;;;11.10;99.90;;;;;;5068099;28;20193;-71
2023/10/31 00:56:54;;;;;;;0.70;0.40;;;11.00;99.90;;;;;;5069616;28;20923;-71
2023/10/31 00:59:19;;;;;;;0.97;0.40;;;11.00;99.90;;;;;;5069564;28;20202;-71
2023/10/31 01:01:45;;;;;;;1.07;0.40;;;11.00;99.90;;;;;;5069520;28;20219;-71
2023/10/31 01:04:11;;;;;;;0.80;0.43;;;10.90;99.90;;;;;;5069511;28;20859;-71
2023/10/31 01:06:43;;;;;;;1.03;0.50;;;11.00;99.90;;;;;;5069245;28;20190;-70
2023/10/31 01:09:09;;;;;;;1.80;0.40;;;10.90;99.90;;;;;;5069271;28;20206;-71
2023/10/31 01:11:35;;;;;;;0.80;0.43;;;10.90;99.90;;;;;;5069270;28;20468;-70
2023/10/31 01:14:01;;;;;;;1.97;0.60;;;10.80;99.90;;;;;;5069371;28;20416;-70
2023/10/31 01:16:27;;;;;;;1.63;0.50;;;10.80;99.90;;;;;;5069289;28;20472;-70
2023/10/31 01:18:52;;;;;;;1.73;0.40;;;10.80;99.90;;;;;;5069089;28;20218;-70
2023/10/31 01:21:18;;;;;;;0.80;0.50;;;10.70;99.90;;;;;;5069055;28;20229;-70
2023/10/31 01:23:44;;;;;;;0.70;0.40;;;10.70;99.90;;;;;;5069355;28;20186;-70
2023/10/31 01:26:09;;;;;;;1.20;0.60;;;10.60;99.90;;;;;;5050674;28;20816;-70
2023/10/31 01:28:35;;;;;;;1.10;0.47;;;10.60;99.90;;;;;;5069017;28;20295;-70
2023/10/31 01:31:01;;;;;;;1.20;0.40;;;10.60;99.90;;;;;;5069077;28;20271;-70
2023/10/31 01:33:26;;;;;;;1.90;0.50;;;10.60;99.90;;;;;;5067459;28;20192;-70
2023/10/31 01:35:52;;;;;;;1.20;0.70;;;10.50;99.90;;;;;;5067434;28;20196;-71
2023/10/31 01:38:17;;;;;;;1.00;0.67;;;10.50;99.90;;;;;;5068732;28;20238;-70
2023/10/31 01:40:43;;;;;;;2.67;0.60;;;10.50;99.90;;;;;;5068977;28;20516;-70
2023/10/31 01:43:09;;;;;;;0.80;0.47;;;10.50;99.90;;;;;;5068474;28;20222;-70
2023/10/31 01:45:34;;;;;;;1.40;0.70;;;10.50;99.90;;;;;;5068676;28;20189;-71
2023/10/31 01:48:00;;;;;;;0.80;0.50;;;10.50;99.90;;;;;;5068660;28;20205;-70
2023/10/31 01:50:26;;;;;;;0.80;0.50;;;10.40;99.90;;;;;;5068880;28;20189;-70
2023/10/31 01:52:52;;;;;;;1.00;0.50;;;10.40;99.90;;;;;;5067208;28;20708;-69
2023/10/31 01:55:18;;;;;;;1.20;0.77;;;10.40;99.90;;;;;;5068605;28;20425;-70
2023/10/31 01:57:45;;;;;;;1.13;0.60;;;10.50;99.90;;;;;;5068642;28;20458;-71
2023/10/31 02:00:12;;;;;;;1.20;0.57;;;10.50;99.90;;;;;;5068521;28;20419;-69
2023/10/31 02:02:41;;;;;;;0.80;0.60;;;10.50;99.90;;;;;;5068356;28;20560;-70
2023/10/31 02:05:07;;;;;;;0.80;0.50;;;10.50;99.90;;;;;;5067019;28;20422;-70
2023/10/31 02:07:32;;;;;;;1.17;0.60;;;10.50;99.90;;;;;;5068405;28;20498;-70
2023/10/31 02:09:58;;;;;;;0.80;0.60;;;10.60;99.90;;;;;;5068360;28;20174;-70
2023/10/31 02:12:37;;;;;;;1.57;0.50;;;10.60;99.90;;;;;;5050707;28;20799;-71
2023/10/31 02:15:03;;;;;;;2.20;0.50;;;10.60;99.90;;;;;;5066994;28;20181;-70
2023/10/31 02:17:29;;;;;;;0.80;0.50;;;10.50;99.90;;;;;;5068375;28;20470;-69
2023/10/31 02:19:55;;;;;;;0.80;0.50;;;10.60;99.90;;;;;;5068486;28;21248;-70
2023/10/31 02:22:22;;;;;;;1.73;0.50;;;10.60;99.90;;;;;;5068441;28;20467;-70
2023/10/31 02:24:47;;;;;;;1.60;0.73;;;10.40;99.90;;;;;;5068394;28;20189;-69
2023/10/31 02:27:13;;;;;;;1.57;0.50;;;10.40;99.90;;;;;;5066629;28;20837;-69
2023/10/31 02:29:42;;;;;;;1.00;0.50;;;10.50;99.90;;;;;;5068383;28;20185;-71
2023/10/31 02:32:07;;;;;;;0.87;0.40;;;10.50;99.90;;;;;;5067153;28;20179;-69
2023/10/31 02:34:34;;;;;;;0.90;0.60;;;10.40;99.90;;;;;;5066925;28;21056;-70
2023/10/31 02:36:59;;;;;;;0.80;0.63;;;10.40;99.90;;;;;;5068481;28;20279;-70
2023/10/31 02:39:25;;;;;;;0.90;0.47;;;10.40;99.90;;;;;;5068564;28;20473;-69
2023/10/31 02:41:51;;;;;;;0.83;0.43;;;10.50;99.90;;;;;;5068664;28;20212;-69
2023/10/31 02:44:16;;;;;;;0.90;0.50;;;10.50;99.90;;;;;;5067403;28;20200;-70
2023/10/31 02:46:42;;;;;;;0.83;0.47;;;10.50;99.90;;;;;;5067740;28;20194;-71
2023/10/31 02:49:09;;;;;;;1.90;0.60;;;10.50;99.90;;;;;;5068820;28;20217;-71
2023/10/31 02:51:35;;;;;;;2.50;0.70;;;10.30;99.90;;;;;;5068673;28;20234;-70
2023/10/31 02:54:01;;;;;;;2.50;0.50;;;10.40;99.90;;;;;;5069272;28;20432;-71
2023/10/31 02:56:26;;;;;;;1.80;0.63;;;10.50;99.90;;;;;;5072342;28;20203;-70
2023/10/31 02:58:52;;;;;;;0.80;0.40;;;10.50;99.90;;;;;;5072131;28;20209;-70
2023/10/31 03:01:20;;;;;;;1.30;0.60;;;10.50;99.90;;;;;;5072013;28;20199;-70
2023/10/31 03:03:46;;;;;;;3.37;0.70;;;10.50;99.90;;;;;;5071991;28;20259;-71
2023/10/31 03:06:11;;;;;;;1.00;0.60;;;10.50;99.90;;;;;;5072041;28;20430;-70
2023/10/31 03:08:37;;;;;;;1.40;0.60;;;10.50;99.90;;;;;;5071658;28;20210;-70
2023/10/31 03:11:03;;;;;;;1.30;0.70;;;10.40;99.90;;;;;;5071791;28;20261;-70
2023/10/31 03:13:28;;;;;;;0.90;0.60;;;10.40;99.90;;;;;;5071748;28;20187;-70
2023/10/31 03:15:54;;;;;;;1.90;1.23;;;10.40;99.90;;;;;;5071782;28;20656;-70
2023/10/31 03:18:19;;;;;;;0.80;0.67;;;10.40;99.90;;;;;;5053619;28;20205;-70
2023/10/31 03:20:48;;;;;;;4.07;0.80;;;10.50;99.90;;;;;;5053737;28;20186;-70
2023/10/31 03:23:14;;;;;;;5.47;0.87;;;10.50;99.90;;;;;;5071422;28;20249;-70
2023/10/31 03:25:40;;;;;;;1.00;0.73;;;10.50;99.90;;;;;;5071522;28;20414;-70
2023/10/31 03:28:18;;;;;;;2.17;0.90;;;10.40;99.90;;;;;;5071266;28;20459;-70
2023/10/31 03:30:44;;;;;;;1.20;0.80;;;10.30;99.90;;;;;;5070010;28;20422;-70
2023/10/31 03:33:10;;;;;;;2.50;0.80;;;10.40;99.90;;;;;;5071023;28;20818;-71
2023/10/31 03:35:36;;;;;;;2.70;0.60;;;10.40;99.90;;;;;;5071078;28;20183;-70
2023/10/31 03:38:02;;;;;;;1.30;0.70;;;10.40;99.90;;;;;;5069629;28;20451;-70
2023/10/31 03:40:28;;;;;;;1.20;0.50;;;10.30;99.90;;;;;;5072521;28;20273;-71
2023/10/31 03:42:53;;;;;;;1.20;0.50;;;10.30;99.90;;;;;;5071938;28;20562;-70
2023/10/31 03:45:19;;;;;;;1.30;0.60;;;10.20;99.90;;;;;;5071053;28;20181;-70
2023/10/31 03:47:45;;;;;;;2.70;0.70;;;10.20;99.90;;;;;;5069380;28;20738;-71
2023/10/31 03:50:10;;;;;;;1.43;0.70;;;10.20;99.90;;;;;;5071055;28;20186;-71
2023/10/31 03:52:36;;;;;;;0.80;0.47;;;10.10;99.90;;;;;;5070813;28;20197;-70
2023/10/31 03:55:01;;;;;;;0.80;0.50;;;10.10;99.90;;;;;;5070962;28;20187;-70
2023/10/31 03:57:27;;;;;;;0.70;0.40;;;10.00;99.90;;;;;;5070773;28;20192;-70
2023/10/31 03:59:52;;;;;;;1.07;0.60;;;10.00;99.90;;;;;;5070963;28;20581;-70
2023/10/31 04:02:18;;;;;;;1.53;0.70;;;9.90;99.90;;;;;;5070592;28;20210;-70
2023/10/31 04:04:43;;;;;;;0.90;0.40;;;10.00;99.90;;;;;;5070452;28;20189;-70
2023/10/31 04:07:09;;;;;;;3.70;0.60;;;10.00;99.90;;;;;;5070581;28;20179;-70
2023/10/31 04:09:35;;;;;;;1.63;0.70;;;10.00;99.90;;;;;;5052807;28;20241;-70
2023/10/31 04:12:00;;;;;;;0.70;0.40;;;10.00;99.90;;;;;;5070357;28;20178;-71
2023/10/31 04:14:26;;;;;;;0.97;0.60;;;10.00;99.90;;;;;;5070501;28;20189;-69
2023/10/31 04:16:51;;;;;;;0.73;0.50;;;10.00;99.90;;;;;;5070628;28;20187;-70
2023/10/31 04:19:17;;;;;;;0.80;0.57;;;10.00;99.90;;;;;;5068960;28;20213;-70
2023/10/31 04:21:42;;;;;;;0.90;0.70;;;10.00;99.90;;;;;;5070505;28;20216;-70
2023/10/31 04:24:08;;;;;;;0.90;0.80;;;10.00;99.90;;;;;;5070653;28;20191;-70
2023/10/31 04:26:34;;;;;;;0.80;0.57;;;9.90;99.90;;;;;;5070590;28;20198;-70
2023/10/31 04:28:59;;;;;;;0.80;0.50;;;10.00;99.90;;;;;;5070629;28;20209;-70
2023/10/31 04:31:25;;;;;;;0.80;0.60;;;9.90;99.90;;;;;;5069167;28;20195;-70
2023/10/31 04:33:50;;;;;;;1.00;0.60;;;10.00;99.90;;;;;;5070306;28;20188;-70
2023/10/31 04:36:16;;;;;;;0.80;0.50;;;10.00;99.90;;;;;;5070059;28;20176;-70
2023/10/31 04:38:41;;;;;;;0.80;0.60;;;9.80;99.90;;;;;;5068734;28;20206;-71
2023/10/31 04:41:09;;;;;;;0.80;0.50;;;9.90;99.90;;;;;;5068706;28;20280;-70
2023/10/31 04:43:34;;;;;;;0.90;0.70;;;9.90;99.90;;;;;;5068808;28;20195;-70
2023/10/31 04:46:00;;;;;;;1.00;0.47;;;10.00;99.90;;;;;;5070188;28;21265;-70
2023/10/31 04:48:25;;;;;;;0.70;0.40;;;10.00;99.90;;;;;;5068693;28;20245;-70
2023/10/31 04:50:51;;;;;;;0.90;0.50;;;9.90;99.90;;;;;;5070118;28;20185;-70
2023/10/31 04:53:16;;;;;;;1.20;0.70;;;10.00;99.90;;;;;;5068474;28;20641;-69
2023/10/31 04:55:42;;;;;;;1.50;0.50;;;10.00;99.90;;;;;;5070172;28;20302;-70
2023/10/31 04:58:08;;;;;;;0.70;0.40;;;10.00;99.90;;;;;;5070010;28;20204;-70
2023/10/31 05:00:33;;;;;;;1.10;0.67;;;10.00;99.90;;;;;;5070060;28;20184;-71
2023/10/31 05:03:01;;;;;;;1.10;0.50;;;10.00;99.90;;;;;;5070146;28;20299;-70
2023/10/31 05:05:26;;;;;;;3.10;0.80;;;10.00;99.90;;;;;;5068767;28;20281;-70
2023/10/31 05:07:52;;;;;;;0.83;0.50;;;10.00;99.90;;;;;;5068470;28;20554;-70
2023/10/31 05:10:17;;;;;;;1.30;0.50;;;10.00;99.90;;;;;;5068858;28;20194;-70
2023/10/31 05:12:43;;;;;;;1.07;0.60;;;10.00;99.90;;;;;;5067899;28;20188;-70
2023/10/31 05:15:09;;;;;;;0.90;0.43;;;10.00;99.90;;;;;;5068079;28;20682;-70
2023/10/31 05:17:35;;;;;;;1.00;0.40;;;10.00;99.90;;;;;;5067294;28;20208;-70
2023/10/31 05:20:00;;;;;;;0.90;0.50;;;10.00;99.90;;;;;;5067838;28;21214;-70
2023/10/31 05:22:26;;;;;;;0.80;0.50;;;10.00;99.90;;;;;;5067625;28;20220;-70
2023/10/31 05:24:51;;;;;;;1.87;0.50;;;10.00;99.90;;;;;;5066381;28;20191;-69
2023/10/31 05:27:17;;;;;;;1.90;0.70;;;10.00;99.90;;;;;;5067649;28;20205;-70
2023/10/31 05:29:43;;;;;;;1.57;0.50;;;10.00;99.90;;;;;;5066229;28;20205;-70
2023/10/31 05:32:09;;;;;;;0.80;0.53;;;9.90;99.90;;;;;;5067443;28;20430;-70
2023/10/31 05:34:34;;;;;;;0.80;0.50;;;9.90;99.90;;;;;;5067599;28;20193;-70
2023/10/31 05:37:00;;;;;;;2.40;0.50;;;9.80;99.90;;;;;;5066272;28;20718;-70
2023/10/31 05:39:26;;;;;;;1.00;0.50;;;9.80;99.90;;;;;;5067717;28;20222;-70
2023/10/31 05:41:52;;;;;;;0.70;0.40;;;9.80;99.90;;;;;;5065893;28;20579;-70
2023/10/31 05:44:17;;;;;;;0.80;0.60;;;9.80;99.90;;;;;;5067575;28;20419;-70
2023/10/31 05:46:43;;;;;;;0.87;0.50;;;9.80;99.90;;;;;;5067526;28;20277;-70
2023/10/31 05:49:10;;;;;;;0.90;0.53;;;9.80;99.90;;;;;;5067257;28;20682;-70
2023/10/31 05:51:35;;;;;;;0.70;0.40;;;9.80;99.90;;;;;;5067505;28;20184;-70
2023/10/31 05:54:01;;;;;;;2.00;0.63;;;9.80;99.90;;;;;;5065918;28;21289;-70
2023/10/31 05:56:27;;;;;;;0.90;0.50;;;9.80;99.90;;;;;;5067598;28;20718;-70
2023/10/31 05:58:52;;;;;;;8.90;0.60;;;9.80;99.90;;;;;;5067213;28;21099;-69
2023/10/31 06:01:18;;;;;;;1.83;0.50;;;9.80;99.90;;;;;;5065658;28;20681;-70
2023/10/31 06:03:44;;;;;;;1.83;0.60;;;9.80;99.90;;;;;;5067184;28;20183;-70
2023/10/31 06:06:11;;;;;;;1.27;0.60;;;9.80;99.90;;;;;;5067101;28;20183;-70
2023/10/31 06:08:36;;;;;;;0.93;0.43;;;9.80;99.90;;;;;;5066967;28;20290;-70
2023/10/31 06:11:04;;;;;;;0.90;0.57;;;9.80;99.90;;;;;;5067067;28;20628;-70
2023/10/31 06:13:31;;;;;;;1.00;0.80;;;9.80;99.90;;;;;;5065783;28;20607;-70
2023/10/31 06:16:00;;;;;;;0.90;0.47;;;9.80;99.90;;;;;;5066946;28;20422;-70
2023/10/31 06:18:26;;;;;;;2.40;0.50;;;9.80;99.90;;;;;;5067158;28;20434;-70
2023/10/31 06:20:55;;;;;;;0.80;0.40;;;9.70;99.90;;;;;;5067134;28;20441;-70
2023/10/31 06:23:21;;;;;;;3.80;0.60;;;9.70;99.90;;;;;;5067242;28;20454;-68
2023/10/31 06:25:46;;;;;;;1.63;0.57;;;9.80;99.90;;;;;;5066934;28;20424;-70
2023/10/31 06:28:12;;;;;;;0.70;0.40;;;9.70;99.90;;;;;;5067136;28;20236;-70
2023/10/31 06:30:38;;;;;;;1.00;0.50;;;9.70;99.90;;;;;;5069054;28;20267;-70
2023/10/31 06:33:03;;;;;;;1.00;0.60;;;9.70;99.90;;;;;;5071374;28;20270;-70
2023/10/31 06:35:29;;;;;;;2.80;0.60;;;9.80;99.90;;;;;;5071265;28;20183;-70
2023/10/31 06:37:56;;;;;;;1.53;0.73;;;9.70;99.90;;;;;;5071343;28;20245;-70
2023/10/31 06:40:23;;;;;;;1.90;0.67;;;9.80;99.90;;;;;;5071712;28;20185;-70
2023/10/31 06:42:49;;;;;;;3.33;0.50;;;9.70;99.90;;;;;;5071746;28;20538;-70
2023/10/31 06:45:14;;;;;;;3.80;0.70;;;9.60;99.90;;;;;;5071265;28;20488;-71
2023/10/31 06:47:41;;;;;;;0.80;0.60;;;9.70;99.90;;;;;;5070093;28;20213;-70
2023/10/31 06:50:08;;;;;;;1.00;0.50;;;9.70;99.90;;;;;;5071143;28;20189;-71
2023/10/31 06:52:33;;;;;;;2.60;0.50;;;9.70;99.90;;;;;;5070943;28;20987;-70
2023/10/31 06:54:59;;;;;;;0.90;0.50;;;9.70;99.90;;;;;;5070618;28;20427;-70
2023/10/31 06:57:25;;;;;;;1.77;0.50;;;9.90;99.90;;;;;;5070520;28;20182;-70
2023/10/31 06:59:51;;;;;;;1.77;0.63;;;9.80;99.90;;;;;;5069110;28;20192;-70
2023/10/31 07:02:17;;;;;;;2.00;0.50;;;9.80;99.90;;;;;;5070549;28;21047;-70
2023/10/31 07:04:43;;;;;;;1.73;0.90;;;9.90;99.90;;;;;;5068716;28;20705;-70
2023/10/31 07:07:09;;;;;;;0.80;0.40;;;9.80;99.90;;;;;;5069043;28;20432;-70
2023/10/31 07:09:34;;;;;;;1.30;0.50;;;9.90;99.90;;;;;;5070144;28;20208;-70
2023/10/31 07:12:00;;;;;;;1.57;0.60;;;9.90;99.90;;;;;;5068939;28;20266;-69
2023/10/31 07:14:25;;;;;;;1.37;0.57;;;9.80;99.90;;;;;;5068951;28;20320;-70
2023/10/31 07:16:51;;;;;;;0.70;0.40;;;9.90;99.90;;;;;;5070244;28;20190;-71
2023/10/31 07:19:16;;;;;;;0.90;0.50;;;10.00;99.90;;;;;;5070115;28;20294;-71
2023/10/31 07:21:42;;;;;;;3.40;0.63;;;10.00;99.90;;;;;;5069897;28;20301;-70
2023/10/31 07:24:08;;;;;;;2.50;0.60;;;9.90;99.90;;;;;;5068590;28;20187;-70
2023/10/31 07:26:37;;;;;;;1.97;0.60;;;10.00;99.90;;;;;;5069931;28;20886;-70
2023/10/31 07:29:03;;;;;;;1.30;0.60;;;10.00;99.90;;;;;;5051860;28;20498;-71
2023/10/31 07:31:28;;;;;;;1.13;0.60;;;10.10;99.90;;;;;;5069037;28;20419;-70
2023/10/31 07:33:54;;;;;;;2.97;0.63;;;10.00;99.90;;;;;;5069906;28;20181;-70
2023/10/31 07:36:19;;;;;;;3.13;0.70;;;10.10;99.90;;;;;;5070231;28;20610;-70
2023/10/31 07:38:45;;;;;;;1.00;0.70;;;10.10;99.90;;;;;;5068630;28;20694;-70
2023/10/31 07:41:10;;;;;;;3.23;0.77;;;10.10;99.90;;;;;;5069353;28;20287;-70
2023/10/31 07:43:36;;;;;;;3.17;0.80;;;10.10;99.90;;;;;;5069762;28;20694;-70
2023/10/31 07:46:02;;;;;;;2.70;1.10;;;10.10;99.90;;;;;;5069930;28;20192;-70
2023/10/31 07:48:27;;;;;;;2.70;0.80;;;10.10;99.90;;;;;;5070177;28;20235;-69
2023/10/31 07:50:53;;;;;;;2.40;0.60;;;9.90;99.90;;;;;;5068978;28;20659;-69
2023/10/31 07:53:19;;;;;;;0.93;0.67;;;10.20;99.90;;;;;;5068494;28;20264;-69
2023/10/31 07:55:44;;;;;;;1.33;0.70;;;10.10;99.90;;;;;;5069864;28;20188;-69
2023/10/31 07:58:10;;;;;;;1.67;0.60;;;10.30;99.90;;;;;;5069317;28;20252;-70
2023/10/31 08:00:36;;;;;;;2.40;0.63;;;10.20;99.90;;;;;;5068376;28;20191;-69
2023/10/31 08:03:02;;;;;;;7.57;0.90;;;10.20;99.90;;;;;;5069392;28;20240;-70
2023/10/31 08:05:27;;;;;;;3.90;0.60;;;10.30;99.90;;;;;;5069707;28;20452;-69
2023/10/31 08:07:53;;;;;;;1.60;0.70;;;10.40;99.90;;;;;;5068213;28;20481;-69
2023/10/31 08:10:19;;;;;;;2.83;0.60;;;10.30;99.90;;;;;;5068544;28;20267;-69
2023/10/31 08:12:44;;;;;;;4.60;0.77;;;10.40;99.90;;;;;;5068328;28;20197;-69
2023/10/31 08:15:10;;;;;;;2.87;0.83;;;10.30;99.90;;;;;;5068390;28;20202;-68
2023/10/31 08:17:36;;;;;;;7.17;0.80;;;10.40;99.90;;;;;;5068517;28;20240;-71
2023/10/31 08:20:05;;;;;;;6.63;0.80;;;10.50;99.90;;;;;;5068229;28;20181;-71
2023/10/31 08:22:31;;;;;;;3.13;0.70;;;10.60;99.90;;;;;;5069671;28;20298;-70
2023/10/31 08:24:56;;;;;;;1.07;0.63;;;10.70;99.90;;;;;;5069767;28;20510;-70
2023/10/31 08:27:22;;;;;;;1.47;0.60;;;10.60;99.90;;;;;;5051575;28;20817;-70
2023/10/31 08:29:47;;;;;;;3.63;0.73;;;10.60;99.90;;;;;;5068425;28;20186;-70
2023/10/31 08:32:13;;;;;;;1.67;0.90;;;10.70;99.90;;;;;;5067888;28;20218;-70
2023/10/31 08:34:39;;;;;;;2.17;0.80;;;10.70;99.90;;;;;;5067935;28;20208;-70
2023/10/31 08:37:04;;;;;;;1.30;0.73;;;10.80;99.90;;;;;;5067542;28;20588;-70
2023/10/31 08:39:30;;;;;;;2.13;0.80;;;10.90;99.90;;;;;;5069565;28;20587;-70
2023/10/31 08:41:57;;;;;;;3.03;0.80;;;11.20;99.90;;;;;;5069243;28;20203;-70
2023/10/31 08:44:23;;;;;;;3.03;0.57;;;11.40;99.90;;;;;;5069132;28;20423;-70
2023/10/31 08:46:49;;;;;;;2.33;0.90;;;11.30;99.90;;;;;;5068967;28;20428;-70
2023/10/31 08:49:15;;;;;;;2.30;0.53;;;11.50;99.90;;;;;;5069071;28;20241;-70
2023/10/31 08:51:41;;;;;;;4.27;0.87;;;11.70;99.90;;;;;;5068234;28;20191;-69
2023/10/31 08:54:07;;;;;;;6.93;0.93;;;11.90;99.90;;;;;;5069017;28;20425;-70
2023/10/31 08:56:32;;;;;;;3.23;0.80;;;12.00;99.90;;;;;;5068973;28;20458;-71
2023/10/31 08:58:58;;;;;;;3.70;0.70;;;12.20;99.90;;;;;;5068800;28;20209;-70
2023/10/31 09:01:24;;;;;;;3.00;0.70;;;12.10;99.90;;;;;;5067087;28;20218;-71
2023/10/31 09:03:50;;;;;;;4.40;0.80;;;12.40;99.90;;;;;;5068680;28;20689;-70
2023/10/31 09:06:16;;;;;;;4.40;0.80;;;12.50;99.90;;;;;;5068478;28;20412;-71
2023/10/31 09:08:41;;;;;;;3.57;1.00;;;12.80;99.90;;;;;;5068444;28;20275;-72
2023/10/31 09:11:07;;;;;;;3.20;0.90;;;13.00;99.90;;;;;;5067078;28;20190;-70
2023/10/31 09:13:33;;;;;;;4.13;0.80;;;13.40;99.90;;;;;;5068544;28;20212;-71
2023/10/31 09:15:59;;;;;;;2.17;0.50;;;13.60;99.90;;;;;;5067066;28;20254;-71
2023/10/31 09:18:25;;;;;;;4.07;1.00;;;13.70;99.90;;;;;;5068339;28;20206;-71
2023/10/31 09:20:51;;;;;;;5.23;0.90;;;14.10;99.90;;;;;;5068494;28;20432;-71
2023/10/31 09:23:17;;;;;;;5.13;0.80;;;14.50;99.90;;;;;;5068381;28;20210;-72
2023/10/31 09:25:43;;;;;;;1.70;0.83;;;15.30;99.90;;;;;;5066989;28;20788;-72
2023/10/31 09:28:09;;;;;;;4.57;0.90;;;15.60;99.90;;;;;;5066884;28;20461;-72
2023/10/31 09:30:34;;;;;;;3.20;0.80;;;15.90;99.90;;;;;;5068436;28;20506;-71
2023/10/31 09:33:00;;;;;;;4.30;0.60;;;15.50;99.90;;;;;;5068367;28;20293;-70
2023/10/31 09:35:26;;;;;;;3.67;0.80;;;15.80;99.90;;;;;;5068126;28;20262;-71
2023/10/31 09:37:52;;;;;;;4.50;0.70;;;16.20;99.90;;;;;;5068130;28;20230;-70
2023/10/31 09:40:18;;;;;;;2.60;1.10;;;16.30;99.90;;;;;;5066440;28;20972;-70
2023/10/31 09:42:45;;;;;;;2.67;1.00;;;16.00;99.90;;;;;;5067489;28;20464;-71
2023/10/31 09:45:12;;;;;;;5.90;0.93;;;16.40;99.90;;;;;;5067469;28;20416;-71
2023/10/31 09:47:37;;;;;;;4.10;0.90;;;16.40;99.90;;;;;;5067419;28;20441;-70
2023/10/31 09:50:04;;;;;;;3.87;0.90;;;16.80;99.90;;;;;;5066031;28;20486;-71
2023/10/31 09:52:29;;;;;;;4.33;1.10;;;17.20;99.90;;;;;;5067712;28;20666;-70
2023/10/31 09:54:56;;;;;;;6.17;1.00;;;17.40;99.90;;;;;;5065936;28;20415;-70
2023/10/31 09:57:22;;;;;;;3.50;0.93;;;17.20;99.90;;;;;;5067388;28;20211;-71
2023/10/31 09:59:48;;;;;;;2.87;1.07;;;17.10;99.90;;;;;;5065941;28;21048;-72
2023/10/31 10:02:14;;;;;;;4.57;1.00;;;16.50;99.90;;;;;;5065691;28;20474;-70
2023/10/31 10:04:40;;;;;;;4.00;1.00;;;16.10;99.90;;;;;;5067192;28;20411;-70
2023/10/31 10:07:05;;;;;;;3.33;1.07;;;15.70;99.90;;;;;;5065918;28;20603;-70
2023/10/31 10:09:34;;;;;;;3.13;0.80;;;15.40;99.90;;;;;;5067377;28;20430;-70
2023/10/31 10:12:01;;;;;;;6.43;1.00;;;15.00;99.90;;;;;;5067508;28;20506;-70
2023/10/31 10:14:28;;;;;;;3.30;1.03;;;14.90;99.90;;;;;;5066118;28;20483;-70
2023/10/31 10:16:54;;;;;;;2.97;0.90;;;14.40;99.90;;;;;;5067277;28;21015;-69
2023/10/31 10:19:21;;;;;;;4.83;1.13;;;14.30;99.90;;;;;;5067501;28;20466;-70
2023/10/31 10:21:48;;;;;;;5.53;0.93;;;14.20;99.90;;;;;;5067671;28;20462;-71
2023/10/31 10:24:14;;;;;;;6.10;1.30;;;14.10;99.90;;;;;;5067660;28;20417;-71
2023/10/31 10:26:39;;;;;;;1.20;0.60;;;14.00;99.90;;;;;;5067822;28;20450;-70
2023/10/31 10:29:05;;;;;;;1.90;0.83;;;13.80;99.90;;;;;;5066362;28;20440;-70
2023/10/31 10:31:31;;;;;;;8.57;1.00;;;13.70;99.90;;;;;;5067546;28;20182;-70
2023/10/31 10:33:57;;;;;;;3.20;1.10;;;13.50;99.90;;;;;;5067628;28;20185;-71
2023/10/31 10:36:25;;;;;;;12.97;1.60;;;13.50;99.90;;;;;;5067430;28;20179;-70
2023/10/31 10:38:56;;;;;;;3.73;1.00;;;13.30;99.90;;;;;;5067596;28;20957;-70
2023/10/31 10:41:23;;;;;;;2.83;0.80;;;13.10;99.90;;;;;;5066002;28;20485;-70
2023/10/31 10:43:51;;;;;;;10.70;1.53;;;13.10;99.90;;;;;;5067105;28;20461;-70
2023/10/31 10:46:19;;;;;;;3.77;0.70;;;13.10;99.90;;;;;;5066973;28;20410;-71
2023/10/31 10:48:47;;;;;;;3.00;1.10;;;13.00;99.90;;;;;;5066796;28;20516;-70
2023/10/31 10:51:29;;;;;;;2.80;1.17;;;13.00;99.90;;;;;;5066887;28;20433;-69
2023/10/31 10:54:05;;;;;;;5.40;1.20;;;13.00;99.90;;;;;;5067192;28;20970;-70
2023/10/31 10:56:37;;;;;;;6.50;1.10;;;13.10;99.90;;;;;;5066937;28;20420;-70
2023/10/31 10:59:16;;;;;;;2.90;1.07;;;12.90;99.90;;;;;;5065588;28;21020;-70
2023/10/31 11:01:43;;;;;;;2.30;0.73;;;12.80;99.90;;;;;;5067283;28;20790;-70
2023/10/31 11:04:10;;;;;;;7.50;1.57;;;12.80;99.90;;;;;;5066801;28;20422;-70
2023/10/31 11:06:38;;;;;;;2.63;0.60;;;12.80;99.90;;;;;;5066883;28;20894;-70
2023/10/31 11:09:06;;;;;;;1.73;1.00;;;12.80;99.90;;;;;;5066641;28;20928;-71
2023/10/31 11:11:35;;;;;;;2.23;0.90;;;12.80;99.90;;;;;;5066832;28;20934;-70
2023/10/31 11:14:02;;;;;;;2.53;1.07;;;12.80;99.90;;;;;;5066773;28;20407;-70
2023/10/31 11:16:42;;;;;;;2.67;0.93;;;12.60;99.90;;;;;;5068522;28;20968;-70
2023/10/31 11:19:09;;;;;;;3.60;0.87;;;12.60;99.90;;;;;;5070118;28;20520;-69
2023/10/31 11:21:35;;;;;;;4.80;0.90;;;12.70;99.90;;;;;;5070294;28;20538;-70
2023/10/31 11:24:01;;;;;;;1.40;0.80;;;12.70;99.90;;;;;;5070341;28;21072;-70
2023/10/31 11:26:29;;;;;;;1.60;1.00;;;12.70;99.90;;;;;;5068728;28;20403;-70
2023/10/31 11:29:05;;;;;;;3.67;0.90;;;12.70;99.90;;;;;;5070298;28;20437;-72
2023/10/31 11:31:32;;;;;;;6.30;0.80;;;12.80;99.90;;;;;;5070264;28;20475;-71
2023/10/31 11:34:00;;;;;;;2.73;0.70;;;12.80;99.90;;;;;;5068365;28;20424;-71
2023/10/31 11:36:25;;;;;;;1.13;0.60;;;12.90;99.90;;;;;;5069923;28;20419;-71
2023/10/31 11:39:13;;;;;;;2.00;0.60;;;12.90;99.90;;;;;;5069946;28;21265;-70
2023/10/31 11:41:39;;;;;;;2.70;0.60;;;13.00;99.90;;;;;;5070018;28;20198;-71
2023/10/31 11:44:05;;;;;;;0.90;0.60;;;13.00;99.90;;;;;;5069647;28;20452;-71
2023/10/31 11:46:30;;;;;;;4.23;0.70;;;13.10;99.90;;;;;;5069911;28;20340;-71
2023/10/31 11:48:57;;;;;;;2.90;0.73;;;13.10;99.90;;;;;;5068005;28;20538;-71
2023/10/31 11:51:23;;;;;;;0.90;0.70;;;13.10;99.90;;;;;;5069617;28;20178;-70
2023/10/31 11:53:49;;;;;;;2.03;0.60;;;13.20;99.90;;;;;;5068035;28;20456;-70
2023/10/31 11:56:15;;;;;;;0.90;0.60;;;13.30;99.90;;;;;;5070274;28;20201;-70
2023/10/31 11:58:41;;;;;;;1.53;0.77;;;13.30;99.90;;;;;;5069694;28;20917;-69
2023/10/31 12:01:09;;;;;;;1.33;0.60;;;13.20;99.90;;;;;;5068466;28;20524;-69
2023/10/31 12:03:39;;;;;;;1.37;0.50;;;13.30;99.90;;;;;;5069663;28;20225;-70
2023/10/31 12:06:06;;;;;;;2.63;0.60;;;13.20;99.90;;;;;;5069951;28;20414;-69
2023/10/31 12:08:36;;;;;;;4.10;0.90;;;13.00;99.90;;;;;;5069266;28;20493;-70
2023/10/31 12:11:17;;;;;;;2.13;0.40;;;13.00;99.90;;;;;;5069584;28;20419;-70
2023/10/31 12:13:59;;;;;;;3.23;0.73;;;12.90;99.90;;;;;;5067847;28;20445;-69
2023/10/31 12:16:26;;;;;;;1.23;0.50;;;12.90;99.90;;;;;;5069493;28;20512;-69
2023/10/31 12:19:05;;;;;;;1.10;0.50;;;12.80;99.90;;;;;;5067635;28;20444;-70
2023/10/31 12:21:42;;;;;;;0.90;0.50;;;12.80;99.90;;;;;;5069266;28;21242;-70
2023/10/31 12:24:16;;;;;;;2.03;0.50;;;12.90;99.90;;;;;;5069025;28;20420;-70
2023/10/31 12:26:42;;;;;;;3.83;0.50;;;13.00;99.90;;;;;;5068915;28;20445;-70
2023/10/31 12:29:12;;;;;;;2.90;0.70;;;13.00;99.90;;;;;;5068947;28;20956;-70
2023/10/31 12:31:45;;;;;;;1.03;0.50;;;13.10;99.90;;;;;;5067473;28;20939;-71
2023/10/31 12:34:11;;;;;;;2.60;0.60;;;13.20;99.90;;;;;;5069164;28;20801;-70
2023/10/31 12:36:37;;;;;;;1.10;0.50;;;13.40;99.90;;;;;;5068934;28;20409;-69
2023/10/31 12:39:06;;;;;;;3.07;0.70;;;13.40;99.90;;;;;;5068687;28;20484;-70
2023/10/31 12:41:32;;;;;;;1.43;0.60;;;13.40;99.90;;;;;;5068590;28;20409;-71
2023/10/31 12:43:58;;;;;;;1.47;0.70;;;13.40;99.90;;;;;;5067133;28;20425;-71